sensor_id;sensor_type;location;lat;lon;timestamp;P1;durP1;ratioP1;P2;durP2;ratioP2
20731;SDS011;10527;52.124;5.196;2023-08-01T00:00:52;4.68;;;1.60;;
20731;SDS011;10527;52.124;5.196;2023-08-01T00:03:20;6.22;;;1.73;;
20731;SDS011;10527;52.124;5.196;2023-08-01T00:05:47;5.45;;;2.50;;
20731;SDS011;10527;52.124;5.196;2023-08-01T00:08:14;3.40;;;1.40;;
20731;SDS011;10527;52.124;5.196;2023-08-01T00:10:41;4.03;;;1.25;;
20731;SDS011;10527;52.124;5.196;2023-08-01T00:13:08;3.05;;;1.23;;
20731;SDS011;10527;52.124;5.196;2023-08-01T00:15:35;2.97;;;1.38;;
20731;SDS011;10527;52.124;5.196;2023-08-01T00:18:02;6.38;;;1.92;;
20731;SDS011;10527;52.124;5.196;2023-08-01T00:20:30;7.72;;;1.90;;
20731;SDS011;10527;52.124;5.196;2023-08-01T00:22:57;5.82;;;2.17;;
20731;SDS011;10527;52.124;5.196;2023-08-01T00:25:23;4.70;;;2.13;;
20731;SDS011;10527;52.124;5.196;2023-08-01T00:27:50;4.82;;;1.63;;
20731;SDS011;10527;52.124;5.196;2023-08-01T00:30:17;4.45;;;1.45;;
20731;SDS011;10527;52.124;5.196;2023-08-01T00:32:44;4.03;;;1.70;;
20731;SDS011;10527;52.124;5.196;2023-08-01T00:35:11;3.42;;;1.33;;
20731;SDS011;10527;52.124;5.196;2023-08-01T00:37:48;5.85;;;1.73;;
20731;SDS011;10527;52.124;5.196;2023-08-01T00:40:15;4.15;;;1.73;;
20731;SDS011;10527;52.124;5.196;2023-08-01T00:42:43;3.40;;;1.40;;
20731;SDS011;10527;52.124;5.196;2023-08-01T00:45:19;4.00;;;1.60;;
20731;SDS011;10527;52.124;5.196;2023-08-01T00:47:46;2.28;;;1.42;;
20731;SDS011;10527;52.124;5.196;2023-08-01T00:50:13;6.32;;;1.88;;
20731;SDS011;10527;52.124;5.196;2023-08-01T00:52:42;3.63;;;1.63;;
20731;SDS011;10527;52.124;5.196;2023-08-01T00:55:09;3.05;;;1.70;;
20731;SDS011;10527;52.124;5.196;2023-08-01T00:57:36;4.88;;;1.85;;
20731;SDS011;10527;52.124;5.196;2023-08-01T01:00:03;2.85;;;1.52;;
20731;SDS011;10527;52.124;5.196;2023-08-01T01:02:31;5.07;;;2.05;;
20731;SDS011;10527;52.124;5.196;2023-08-01T01:04:58;4.22;;;1.95;;
20731;SDS011;10527;52.124;5.196;2023-08-01T01:07:25;5.93;;;2.13;;
20731;SDS011;10527;52.124;5.196;2023-08-01T01:09:54;3.35;;;1.40;;
20731;SDS011;10527;52.124;5.196;2023-08-01T01:12:20;4.38;;;2.03;;
20731;SDS011;10527;52.124;5.196;2023-08-01T01:14:50;4.75;;;2.33;;
20731;SDS011;10527;52.124;5.196;2023-08-01T01:17:17;6.22;;;2.15;;
20731;SDS011;10527;52.124;5.196;2023-08-01T01:19:44;3.88;;;2.05;;
20731;SDS011;10527;52.124;5.196;2023-08-01T01:22:11;4.70;;;2.55;;
20731;SDS011;10527;52.124;5.196;2023-08-01T01:24:39;8.23;;;3.50;;
20731;SDS011;10527;52.124;5.196;2023-08-01T01:27:08;4.30;;;2.22;;
20731;SDS011;10527;52.124;5.196;2023-08-01T01:29:44;7.20;;;2.47;;
20731;SDS011;10527;52.124;5.196;2023-08-01T01:32:13;6.57;;;2.33;;
20731;SDS011;10527;52.124;5.196;2023-08-01T01:34:40;5.65;;;2.33;;
20731;SDS011;10527;52.124;5.196;2023-08-01T01:37:07;4.43;;;2.05;;
20731;SDS011;10527;52.124;5.196;2023-08-01T01:39:34;12.27;;;4.18;;
20731;SDS011;10527;52.124;5.196;2023-08-01T01:42:01;4.75;;;2.40;;
20731;SDS011;10527;52.124;5.196;2023-08-01T01:44:28;4.43;;;2.20;;
20731;SDS011;10527;52.124;5.196;2023-08-01T01:46:55;5.03;;;2.28;;
20731;SDS011;10527;52.124;5.196;2023-08-01T01:49:24;8.02;;;2.58;;
20731;SDS011;10527;52.124;5.196;2023-08-01T01:51:54;4.95;;;2.47;;
20731;SDS011;10527;52.124;5.196;2023-08-01T01:54:23;8.32;;;2.58;;
20731;SDS011;10527;52.124;5.196;2023-08-01T01:56:50;7.40;;;2.50;;
20731;SDS011;10527;52.124;5.196;2023-08-01T01:59:20;6.22;;;2.55;;
20731;SDS011;10527;52.124;5.196;2023-08-01T02:01:47;5.18;;;2.40;;
20731;SDS011;10527;52.124;5.196;2023-08-01T02:04:14;7.00;;;2.33;;
20731;SDS011;10527;52.124;5.196;2023-08-01T02:06:41;4.65;;;2.17;;
20731;SDS011;10527;52.124;5.196;2023-08-01T02:09:08;4.63;;;2.30;;
20731;SDS011;10527;52.124;5.196;2023-08-01T02:11:34;6.40;;;3.30;;
20731;SDS011;10527;52.124;5.196;2023-08-01T02:14:01;3.15;;;1.98;;
20731;SDS011;10527;52.124;5.196;2023-08-01T02:16:36;5.70;;;1.95;;
20731;SDS011;10527;52.124;5.196;2023-08-01T02:19:08;4.22;;;1.90;;
20731;SDS011;10527;52.124;5.196;2023-08-01T02:21:35;6.47;;;2.30;;
20731;SDS011;10527;52.124;5.196;2023-08-01T02:24:02;6.07;;;2.60;;
20731;SDS011;10527;52.124;5.196;2023-08-01T02:26:30;12.20;;;2.85;;
20731;SDS011;10527;52.124;5.196;2023-08-01T02:29:05;9.10;;;3.35;;
20731;SDS011;10527;52.124;5.196;2023-08-01T02:31:35;8.23;;;3.92;;
20731;SDS011;10527;52.124;5.196;2023-08-01T02:34:05;4.53;;;2.60;;
20731;SDS011;10527;52.124;5.196;2023-08-01T02:36:31;6.95;;;2.80;;
20731;SDS011;10527;52.124;5.196;2023-08-01T02:38:58;7.57;;;2.92;;
20731;SDS011;10527;52.124;5.196;2023-08-01T02:41:25;4.97;;;2.33;;
20731;SDS011;10527;52.124;5.196;2023-08-01T02:43:58;5.93;;;2.40;;
20731;SDS011;10527;52.124;5.196;2023-08-01T02:46:27;5.65;;;2.60;;
20731;SDS011;10527;52.124;5.196;2023-08-01T02:48:58;3.85;;;2.13;;
20731;SDS011;10527;52.124;5.196;2023-08-01T02:51:25;7.20;;;2.53;;
20731;SDS011;10527;52.124;5.196;2023-08-01T02:53:52;3.05;;;1.65;;
20731;SDS011;10527;52.124;5.196;2023-08-01T02:56:19;8.43;;;1.60;;
20731;SDS011;10527;52.124;5.196;2023-08-01T02:58:46;3.97;;;1.90;;
20731;SDS011;10527;52.124;5.196;2023-08-01T03:01:18;4.07;;;2.33;;
20731;SDS011;10527;52.124;5.196;2023-08-01T03:03:44;4.05;;;1.50;;
20731;SDS011;10527;52.124;5.196;2023-08-01T03:06:15;4.88;;;2.50;;
20731;SDS011;10527;52.124;5.196;2023-08-01T03:08:42;4.95;;;1.85;;
20731;SDS011;10527;52.124;5.196;2023-08-01T03:11:10;3.45;;;1.65;;
20731;SDS011;10527;52.124;5.196;2023-08-01T03:13:37;3.65;;;1.58;;
20731;SDS011;10527;52.124;5.196;2023-08-01T03:16:04;3.40;;;1.60;;
20731;SDS011;10527;52.124;5.196;2023-08-01T03:18:34;4.10;;;1.60;;
20731;SDS011;10527;52.124;5.196;2023-08-01T03:21:01;5.22;;;1.65;;
20731;SDS011;10527;52.124;5.196;2023-08-01T03:23:30;3.05;;;1.80;;
20731;SDS011;10527;52.124;5.196;2023-08-01T03:25:57;6.53;;;2.90;;
20731;SDS011;10527;52.124;5.196;2023-08-01T03:28:25;5.50;;;2.38;;
20731;SDS011;10527;52.124;5.196;2023-08-01T03:31:01;4.65;;;2.70;;
20731;SDS011;10527;52.124;5.196;2023-08-01T03:33:28;5.03;;;2.80;;
20731;SDS011;10527;52.124;5.196;2023-08-01T03:35:55;6.10;;;2.42;;
20731;SDS011;10527;52.124;5.196;2023-08-01T03:38:22;5.90;;;2.50;;
20731;SDS011;10527;52.124;5.196;2023-08-01T03:40:49;6.72;;;3.20;;
20731;SDS011;10527;52.124;5.196;2023-08-01T03:43:16;5.85;;;2.72;;
20731;SDS011;10527;52.124;5.196;2023-08-01T03:45:43;3.90;;;2.72;;
20731;SDS011;10527;52.124;5.196;2023-08-01T03:48:09;5.20;;;2.80;;
20731;SDS011;10527;52.124;5.196;2023-08-01T03:50:37;7.72;;;2.55;;
20731;SDS011;10527;52.124;5.196;2023-08-01T03:53:04;5.40;;;2.90;;
20731;SDS011;10527;52.124;5.196;2023-08-01T03:55:31;11.38;;;3.30;;
20731;SDS011;10527;52.124;5.196;2023-08-01T03:58:01;8.13;;;2.83;;
20731;SDS011;10527;52.124;5.196;2023-08-01T04:00:29;9.98;;;3.45;;
20731;SDS011;10527;52.124;5.196;2023-08-01T04:03:05;8.65;;;3.25;;
20731;SDS011;10527;52.124;5.196;2023-08-01T04:05:32;6.93;;;2.88;;
20731;SDS011;10527;52.124;5.196;2023-08-01T04:07:59;6.97;;;2.95;;
20731;SDS011;10527;52.124;5.196;2023-08-01T04:10:26;11.63;;;4.90;;
20731;SDS011;10527;52.124;5.196;2023-08-01T04:12:53;7.45;;;3.40;;
20731;SDS011;10527;52.124;5.196;2023-08-01T04:15:20;7.15;;;3.50;;
20731;SDS011;10527;52.124;5.196;2023-08-01T04:17:46;6.68;;;3.10;;
20731;SDS011;10527;52.124;5.196;2023-08-01T04:20:17;9.27;;;3.83;;
20731;SDS011;10527;52.124;5.196;2023-08-01T04:22:44;13.48;;;3.45;;
20731;SDS011;10527;52.124;5.196;2023-08-01T04:25:10;9.15;;;3.17;;
20731;SDS011;10527;52.124;5.196;2023-08-01T04:27:37;6.90;;;2.75;;
20731;SDS011;10527;52.124;5.196;2023-08-01T04:30:04;10.80;;;3.17;;
20731;SDS011;10527;52.124;5.196;2023-08-01T04:32:34;6.63;;;3.47;;
20731;SDS011;10527;52.124;5.196;2023-08-01T04:35:01;7.13;;;2.80;;
20731;SDS011;10527;52.124;5.196;2023-08-01T04:37:31;9.05;;;3.10;;
20731;SDS011;10527;52.124;5.196;2023-08-01T04:40:01;8.13;;;3.58;;
20731;SDS011;10527;52.124;5.196;2023-08-01T04:42:28;9.05;;;3.53;;
20731;SDS011;10527;52.124;5.196;2023-08-01T04:44:56;11.75;;;3.95;;
20731;SDS011;10527;52.124;5.196;2023-08-01T04:47:23;6.88;;;2.80;;
20731;SDS011;10527;52.124;5.196;2023-08-01T04:49:50;9.30;;;3.22;;
20731;SDS011;10527;52.124;5.196;2023-08-01T04:52:17;11.13;;;4.30;;
20731;SDS011;10527;52.124;5.196;2023-08-01T04:54:43;8.93;;;3.03;;
20731;SDS011;10527;52.124;5.196;2023-08-01T04:57:10;10.07;;;4.07;;
20731;SDS011;10527;52.124;5.196;2023-08-01T04:59:37;8.70;;;3.47;;
20731;SDS011;10527;52.124;5.196;2023-08-01T05:02:07;7.88;;;3.13;;
20731;SDS011;10527;52.124;5.196;2023-08-01T05:04:34;9.98;;;3.67;;
20731;SDS011;10527;52.124;5.196;2023-08-01T05:07:01;7.45;;;3.33;;
20731;SDS011;10527;52.124;5.196;2023-08-01T05:09:30;14.35;;;5.18;;
20731;SDS011;10527;52.124;5.196;2023-08-01T05:11:58;6.78;;;3.65;;
20731;SDS011;10527;52.124;5.196;2023-08-01T05:14:28;9.27;;;3.33;;
20731;SDS011;10527;52.124;5.196;2023-08-01T05:16:55;14.73;;;3.75;;
20731;SDS011;10527;52.124;5.196;2023-08-01T05:19:21;9.98;;;3.28;;
20731;SDS011;10527;52.124;5.196;2023-08-01T05:21:48;7.20;;;3.67;;
20731;SDS011;10527;52.124;5.196;2023-08-01T05:24:15;7.05;;;3.30;;
20731;SDS011;10527;52.124;5.196;2023-08-01T05:26:42;8.93;;;3.10;;
20731;SDS011;10527;52.124;5.196;2023-08-01T05:29:09;10.93;;;3.33;;
20731;SDS011;10527;52.124;5.196;2023-08-01T05:31:35;10.30;;;3.33;;
20731;SDS011;10527;52.124;5.196;2023-08-01T05:34:05;5.93;;;2.53;;
20731;SDS011;10527;52.124;5.196;2023-08-01T05:36:35;8.32;;;2.47;;
20731;SDS011;10527;52.124;5.196;2023-08-01T05:39:03;10.95;;;3.17;;
20731;SDS011;10527;52.124;5.196;2023-08-01T05:41:30;6.60;;;2.08;;
20731;SDS011;10527;52.124;5.196;2023-08-01T05:43:57;8.25;;;3.35;;
20731;SDS011;10527;52.124;5.196;2023-08-01T05:46:24;10.10;;;2.85;;
20731;SDS011;10527;52.124;5.196;2023-08-01T05:48:51;8.60;;;2.85;;
20731;SDS011;10527;52.124;5.196;2023-08-01T05:51:18;7.10;;;2.70;;
20731;SDS011;10527;52.124;5.196;2023-08-01T05:53:45;9.10;;;2.70;;
20731;SDS011;10527;52.124;5.196;2023-08-01T05:56:12;6.60;;;2.30;;
20731;SDS011;10527;52.124;5.196;2023-08-01T05:58:39;7.32;;;2.63;;
20731;SDS011;10527;52.124;5.196;2023-08-01T06:01:06;10.85;;;3.88;;
20731;SDS011;10527;52.124;5.196;2023-08-01T06:03:35;7.53;;;2.75;;
20731;SDS011;10527;52.124;5.196;2023-08-01T06:06:05;4.90;;;2.45;;
20731;SDS011;10527;52.124;5.196;2023-08-01T06:08:31;5.45;;;2.40;;
20731;SDS011;10527;52.124;5.196;2023-08-01T06:10:58;9.70;;;3.03;;
20731;SDS011;10527;52.124;5.196;2023-08-01T06:13:25;4.95;;;1.90;;
20731;SDS011;10527;52.124;5.196;2023-08-01T06:15:54;5.53;;;2.67;;
20731;SDS011;10527;52.124;5.196;2023-08-01T06:18:21;7.07;;;2.47;;
20731;SDS011;10527;52.124;5.196;2023-08-01T06:20:48;7.15;;;2.25;;
20731;SDS011;10527;52.124;5.196;2023-08-01T06:23:15;5.43;;;2.63;;
20731;SDS011;10527;52.124;5.196;2023-08-01T06:25:45;6.32;;;2.38;;
20731;SDS011;10527;52.124;5.196;2023-08-01T06:28:12;5.00;;;1.88;;
20731;SDS011;10527;52.124;5.196;2023-08-01T06:30:40;6.15;;;2.35;;
20731;SDS011;10527;52.124;5.196;2023-08-01T06:33:07;7.93;;;2.30;;
20731;SDS011;10527;52.124;5.196;2023-08-01T06:35:33;8.25;;;2.53;;
20731;SDS011;10527;52.124;5.196;2023-08-01T06:38:00;5.22;;;2.20;;
20731;SDS011;10527;52.124;5.196;2023-08-01T06:40:27;6.20;;;2.55;;
20731;SDS011;10527;52.124;5.196;2023-08-01T06:42:54;5.60;;;2.08;;
20731;SDS011;10527;52.124;5.196;2023-08-01T06:45:21;6.65;;;2.10;;
20731;SDS011;10527;52.124;5.196;2023-08-01T06:47:48;8.32;;;2.03;;
20731;SDS011;10527;52.124;5.196;2023-08-01T06:50:17;6.10;;;2.33;;
20731;SDS011;10527;52.124;5.196;2023-08-01T06:52:49;5.85;;;2.05;;
20731;SDS011;10527;52.124;5.196;2023-08-01T06:55:22;8.50;;;2.45;;
20731;SDS011;10527;52.124;5.196;2023-08-01T06:57:48;4.85;;;1.60;;
20731;SDS011;10527;52.124;5.196;2023-08-01T07:00:18;7.80;;;2.70;;
20731;SDS011;10527;52.124;5.196;2023-08-01T07:02:45;5.90;;;1.88;;
20731;SDS011;10527;52.124;5.196;2023-08-01T07:05:13;6.75;;;1.77;;
20731;SDS011;10527;52.124;5.196;2023-08-01T07:07:39;6.18;;;1.73;;
20731;SDS011;10527;52.124;5.196;2023-08-01T07:10:06;3.95;;;1.55;;
20731;SDS011;10527;52.124;5.196;2023-08-01T07:12:34;5.15;;;1.92;;
20731;SDS011;10527;52.124;5.196;2023-08-01T07:15:01;6.70;;;2.90;;
20731;SDS011;10527;52.124;5.196;2023-08-01T07:17:28;7.60;;;3.10;;
20731;SDS011;10527;52.124;5.196;2023-08-01T07:19:55;5.60;;;1.80;;
20731;SDS011;10527;52.124;5.196;2023-08-01T07:22:22;7.80;;;1.85;;
20731;SDS011;10527;52.124;5.196;2023-08-01T07:24:52;6.22;;;2.03;;
20731;SDS011;10527;52.124;5.196;2023-08-01T07:27:22;7.95;;;2.20;;
20731;SDS011;10527;52.124;5.196;2023-08-01T07:29:49;5.85;;;2.08;;
20731;SDS011;10527;52.124;5.196;2023-08-01T07:32:15;8.40;;;2.60;;
20731;SDS011;10527;52.124;5.196;2023-08-01T07:34:42;7.68;;;2.10;;
20731;SDS011;10527;52.124;5.196;2023-08-01T07:37:09;8.68;;;2.08;;
20731;SDS011;10527;52.124;5.196;2023-08-01T07:39:36;4.88;;;1.83;;
20731;SDS011;10527;52.124;5.196;2023-08-01T07:42:03;6.45;;;1.70;;
20731;SDS011;10527;52.124;5.196;2023-08-01T07:44:30;4.00;;;1.98;;
20731;SDS011;10527;52.124;5.196;2023-08-01T07:46:57;5.72;;;1.80;;
20731;SDS011;10527;52.124;5.196;2023-08-01T07:49:24;10.35;;;2.05;;
20731;SDS011;10527;52.124;5.196;2023-08-01T07:51:52;5.40;;;2.03;;
20731;SDS011;10527;52.124;5.196;2023-08-01T07:54:19;5.07;;;2.05;;
20731;SDS011;10527;52.124;5.196;2023-08-01T07:56:46;7.45;;;1.80;;
20731;SDS011;10527;52.124;5.196;2023-08-01T07:59:14;6.03;;;2.40;;
20731;SDS011;10527;52.124;5.196;2023-08-01T08:01:42;8.75;;;1.75;;
20731;SDS011;10527;52.124;5.196;2023-08-01T08:04:09;5.78;;;1.70;;
20731;SDS011;10527;52.124;5.196;2023-08-01T08:06:36;7.10;;;2.55;;
20731;SDS011;10527;52.124;5.196;2023-08-01T08:09:04;5.50;;;1.73;;
20731;SDS011;10527;52.124;5.196;2023-08-01T08:11:31;4.20;;;1.63;;
20731;SDS011;10527;52.124;5.196;2023-08-01T08:13:59;4.22;;;1.13;;
20731;SDS011;10527;52.124;5.196;2023-08-01T08:16:26;4.93;;;1.27;;
20731;SDS011;10527;52.124;5.196;2023-08-01T08:18:53;3.20;;;1.35;;
20731;SDS011;10527;52.124;5.196;2023-08-01T08:21:22;4.82;;;1.30;;
20731;SDS011;10527;52.124;5.196;2023-08-01T08:23:49;3.95;;;1.85;;
20731;SDS011;10527;52.124;5.196;2023-08-01T08:26:16;8.77;;;1.33;;
20731;SDS011;10527;52.124;5.196;2023-08-01T08:28:45;3.65;;;1.20;;
20731;SDS011;10527;52.124;5.196;2023-08-01T08:31:13;4.78;;;0.90;;
20731;SDS011;10527;52.124;5.196;2023-08-01T08:33:40;5.07;;;1.17;;
20731;SDS011;10527;52.124;5.196;2023-08-01T08:36:06;4.18;;;1.35;;
20731;SDS011;10527;52.124;5.196;2023-08-01T08:38:33;3.38;;;1.33;;
20731;SDS011;10527;52.124;5.196;2023-08-01T08:43:42;4.35;;;1.40;;
20731;SDS011;10527;52.124;5.196;2023-08-01T08:46:10;4.82;;;1.58;;
20731;SDS011;10527;52.124;5.196;2023-08-01T08:48:42;3.83;;;1.20;;
20731;SDS011;10527;52.124;5.196;2023-08-01T08:51:11;4.07;;;1.60;;
20731;SDS011;10527;52.124;5.196;2023-08-01T08:53:42;4.30;;;1.10;;
20731;SDS011;10527;52.124;5.196;2023-08-01T08:56:13;5.05;;;1.25;;
20731;SDS011;10527;52.124;5.196;2023-08-01T08:58:41;4.38;;;1.40;;
20731;SDS011;10527;52.124;5.196;2023-08-01T09:01:10;6.70;;;1.70;;
20731;SDS011;10527;52.124;5.196;2023-08-01T09:03:37;4.47;;;1.42;;
20731;SDS011;10527;52.124;5.196;2023-08-01T09:06:09;3.22;;;1.25;;
20731;SDS011;10527;52.124;5.196;2023-08-01T09:08:52;4.78;;;1.27;;
20731;SDS011;10527;52.124;5.196;2023-08-01T09:14:20;5.70;;;2.83;;
20731;SDS011;10527;52.124;5.196;2023-08-01T09:16:47;3.65;;;1.40;;
20731;SDS011;10527;52.124;5.196;2023-08-01T09:19:18;6.30;;;1.70;;
20731;SDS011;10527;52.124;5.196;2023-08-01T09:21:47;4.07;;;1.48;;
20731;SDS011;10527;52.124;5.196;2023-08-01T09:24:18;5.20;;;1.10;;
20731;SDS011;10527;52.124;5.196;2023-08-01T09:26:47;4.72;;;1.20;;
20731;SDS011;10527;52.124;5.196;2023-08-01T09:29:16;4.25;;;1.23;;
20731;SDS011;10527;52.124;5.196;2023-08-01T09:31:44;6.43;;;1.45;;
20731;SDS011;10527;52.124;5.196;2023-08-01T09:34:24;4.85;;;1.50;;
20731;SDS011;10527;52.124;5.196;2023-08-01T09:36:59;4.22;;;1.40;;
20731;SDS011;10527;52.124;5.196;2023-08-01T09:39:26;5.75;;;1.40;;
20731;SDS011;10527;52.124;5.196;2023-08-01T09:44:25;5.25;;;1.23;;
20731;SDS011;10527;52.124;5.196;2023-08-01T09:46:58;6.97;;;1.70;;
20731;SDS011;10527;52.124;5.196;2023-08-01T09:49:28;4.95;;;1.60;;
20731;SDS011;10527;52.124;5.196;2023-08-01T09:51:58;8.82;;;1.83;;
20731;SDS011;10527;52.124;5.196;2023-08-01T09:54:27;8.00;;;1.75;;
20731;SDS011;10527;52.124;5.196;2023-08-01T09:56:54;6.05;;;1.38;;
20731;SDS011;10527;52.124;5.196;2023-08-01T09:59:30;5.50;;;1.30;;
20731;SDS011;10527;52.124;5.196;2023-08-01T10:01:57;5.22;;;1.75;;
20731;SDS011;10527;52.124;5.196;2023-08-01T10:04:30;5.95;;;1.20;;
20731;SDS011;10527;52.124;5.196;2023-08-01T10:06:58;3.50;;;2.08;;
20731;SDS011;10527;52.124;5.196;2023-08-01T10:09:32;5.30;;;1.05;;
20731;SDS011;10527;52.124;5.196;2023-08-01T10:12:01;5.00;;;1.55;;
20731;SDS011;10527;52.124;5.196;2023-08-01T10:14:37;6.38;;;1.10;;
20731;SDS011;10527;52.124;5.196;2023-08-01T10:17:06;9.05;;;1.30;;
20731;SDS011;10527;52.124;5.196;2023-08-01T10:19:34;5.50;;;1.27;;
20731;SDS011;10527;52.124;5.196;2023-08-01T10:22:01;4.78;;;1.38;;
20731;SDS011;10527;52.124;5.196;2023-08-01T10:24:32;3.20;;;1.10;;
20731;SDS011;10527;52.124;5.196;2023-08-01T10:27:18;3.88;;;1.50;;
20731;SDS011;10527;52.124;5.196;2023-08-01T10:30:00;5.95;;;1.48;;
20731;SDS011;10527;52.124;5.196;2023-08-01T10:32:37;4.55;;;1.08;;
20731;SDS011;10527;52.124;5.196;2023-08-01T10:35:06;3.53;;;1.15;;
20731;SDS011;10527;52.124;5.196;2023-08-01T10:37:46;4.60;;;1.45;;
20731;SDS011;10527;52.124;5.196;2023-08-01T10:40:15;3.38;;;0.95;;
20731;SDS011;10527;52.124;5.196;2023-08-01T10:42:43;7.13;;;2.15;;
20731;SDS011;10527;52.124;5.196;2023-08-01T10:45:21;4.07;;;1.00;;
20731;SDS011;10527;52.124;5.196;2023-08-01T10:47:53;4.35;;;0.98;;
20731;SDS011;10527;52.124;5.196;2023-08-01T10:50:20;3.40;;;0.93;;
20731;SDS011;10527;52.124;5.196;2023-08-01T10:52:47;3.97;;;1.10;;
20731;SDS011;10527;52.124;5.196;2023-08-01T10:55:15;3.42;;;1.00;;
20731;SDS011;10527;52.124;5.196;2023-08-01T10:57:47;2.65;;;0.93;;
20731;SDS011;10527;52.124;5.196;2023-08-01T11:00:22;6.05;;;1.48;;
20731;SDS011;10527;52.124;5.196;2023-08-01T11:02:52;2.38;;;0.80;;
20731;SDS011;10527;52.124;5.196;2023-08-01T11:05:19;5.72;;;1.20;;
20731;SDS011;10527;52.124;5.196;2023-08-01T11:07:53;5.45;;;1.30;;
20731;SDS011;10527;52.124;5.196;2023-08-01T11:10:27;4.65;;;1.40;;
20731;SDS011;10527;52.124;5.196;2023-08-01T11:12:58;3.78;;;1.38;;
20731;SDS011;10527;52.124;5.196;2023-08-01T11:15:29;5.93;;;1.30;;
20731;SDS011;10527;52.124;5.196;2023-08-01T11:17:55;3.22;;;1.00;;
20731;SDS011;10527;52.124;5.196;2023-08-01T11:20:28;3.10;;;1.00;;
20731;SDS011;10527;52.124;5.196;2023-08-01T11:22:56;5.20;;;1.20;;
20731;SDS011;10527;52.124;5.196;2023-08-01T11:25:37;6.40;;;1.33;;
20731;SDS011;10527;52.124;5.196;2023-08-01T11:28:15;3.85;;;0.90;;
20731;SDS011;10527;52.124;5.196;2023-08-01T11:30:43;5.10;;;1.52;;
20731;SDS011;10527;52.124;5.196;2023-08-01T11:33:15;3.30;;;1.00;;
20731;SDS011;10527;52.124;5.196;2023-08-01T11:35:51;4.90;;;1.30;;
20731;SDS011;10527;52.124;5.196;2023-08-01T11:38:25;3.03;;;1.05;;
20731;SDS011;10527;52.124;5.196;2023-08-01T11:40:58;6.55;;;1.30;;
20731;SDS011;10527;52.124;5.196;2023-08-01T11:43:43;2.70;;;1.10;;
20731;SDS011;10527;52.124;5.196;2023-08-01T11:46:10;2.15;;;1.02;;
20731;SDS011;10527;52.124;5.196;2023-08-01T11:48:38;3.20;;;1.00;;
20731;SDS011;10527;52.124;5.196;2023-08-01T11:51:11;3.95;;;1.10;;
20731;SDS011;10527;52.124;5.196;2023-08-01T11:53:39;3.85;;;1.10;;
20731;SDS011;10527;52.124;5.196;2023-08-01T11:56:20;6.03;;;1.35;;
20731;SDS011;10527;52.124;5.196;2023-08-01T11:58:56;4.03;;;1.02;;
20731;SDS011;10527;52.124;5.196;2023-08-01T12:01:23;5.20;;;1.02;;
20731;SDS011;10527;52.124;5.196;2023-08-01T12:03:51;4.30;;;1.40;;
20731;SDS011;10527;52.124;5.196;2023-08-01T12:06:21;6.38;;;1.30;;
20731;SDS011;10527;52.124;5.196;2023-08-01T12:08:51;7.70;;;2.03;;
20731;SDS011;10527;52.124;5.196;2023-08-01T12:11:26;4.25;;;1.00;;
20731;SDS011;10527;52.124;5.196;2023-08-01T12:16:37;5.65;;;1.55;;
20731;SDS011;10527;52.124;5.196;2023-08-01T12:19:19;5.85;;;1.42;;
20731;SDS011;10527;52.124;5.196;2023-08-01T12:21:47;5.88;;;1.98;;
20731;SDS011;10527;52.124;5.196;2023-08-01T12:24:15;2.97;;;1.10;;
20731;SDS011;10527;52.124;5.196;2023-08-01T12:26:42;4.72;;;1.42;;
20731;SDS011;10527;52.124;5.196;2023-08-01T12:29:09;5.13;;;1.65;;
20731;SDS011;10527;52.124;5.196;2023-08-01T12:31:37;9.57;;;1.35;;
20731;SDS011;10527;52.124;5.196;2023-08-01T12:34:04;3.80;;;1.20;;
20731;SDS011;10527;52.124;5.196;2023-08-01T12:36:34;3.55;;;0.98;;
20731;SDS011;10527;52.124;5.196;2023-08-01T12:39:01;3.90;;;1.00;;
20731;SDS011;10527;52.124;5.196;2023-08-01T12:41:28;3.22;;;1.33;;
20731;SDS011;10527;52.124;5.196;2023-08-01T12:43:55;2.33;;;0.80;;
20731;SDS011;10527;52.124;5.196;2023-08-01T12:46:27;4.15;;;1.02;;
20731;SDS011;10527;52.124;5.196;2023-08-01T12:48:57;6.25;;;1.20;;
20731;SDS011;10527;52.124;5.196;2023-08-01T12:51:24;3.63;;;0.90;;
20731;SDS011;10527;52.124;5.196;2023-08-01T12:54:05;6.50;;;1.25;;
20731;SDS011;10527;52.124;5.196;2023-08-01T12:56:32;3.88;;;1.10;;
20731;SDS011;10527;52.124;5.196;2023-08-01T12:58:59;4.35;;;1.20;;
20731;SDS011;10527;52.124;5.196;2023-08-01T13:01:29;4.60;;;1.30;;
20731;SDS011;10527;52.124;5.196;2023-08-01T13:03:56;3.88;;;1.88;;
20731;SDS011;10527;52.124;5.196;2023-08-01T13:06:22;4.38;;;1.40;;
20731;SDS011;10527;52.124;5.196;2023-08-01T13:08:49;5.93;;;1.50;;
20731;SDS011;10527;52.124;5.196;2023-08-01T13:11:16;4.57;;;1.45;;
20731;SDS011;10527;52.124;5.196;2023-08-01T13:13:46;7.00;;;1.40;;
20731;SDS011;10527;52.124;5.196;2023-08-01T13:16:13;4.30;;;1.30;;
20731;SDS011;10527;52.124;5.196;2023-08-01T13:18:40;4.53;;;1.30;;
20731;SDS011;10527;52.124;5.196;2023-08-01T13:21:12;5.47;;;1.25;;
20731;SDS011;10527;52.124;5.196;2023-08-01T13:23:39;6.88;;;2.33;;
20731;SDS011;10527;52.124;5.196;2023-08-01T13:26:06;8.30;;;1.85;;
20731;SDS011;10527;52.124;5.196;2023-08-01T13:28:33;4.32;;;1.20;;
20731;SDS011;10527;52.124;5.196;2023-08-01T13:31:00;5.50;;;1.65;;
20731;SDS011;10527;52.124;5.196;2023-08-01T13:33:26;5.85;;;1.65;;
20731;SDS011;10527;52.124;5.196;2023-08-01T13:35:53;4.63;;;1.13;;
20731;SDS011;10527;52.124;5.196;2023-08-01T13:38:21;3.28;;;1.48;;
20731;SDS011;10527;52.124;5.196;2023-08-01T13:40:48;4.75;;;1.42;;
20731;SDS011;10527;52.124;5.196;2023-08-01T13:43:18;2.65;;;0.93;;
20731;SDS011;10527;52.124;5.196;2023-08-01T13:45:47;4.15;;;1.38;;
20731;SDS011;10527;52.124;5.196;2023-08-01T13:48:19;5.03;;;1.10;;
20731;SDS011;10527;52.124;5.196;2023-08-01T13:50:48;7.03;;;1.00;;
20731;SDS011;10527;52.124;5.196;2023-08-01T13:53:15;4.68;;;1.65;;
20731;SDS011;10527;52.124;5.196;2023-08-01T13:55:43;4.65;;;1.33;;
20731;SDS011;10527;52.124;5.196;2023-08-01T13:58:10;4.80;;;1.38;;
20731;SDS011;10527;52.124;5.196;2023-08-01T14:00:39;3.60;;;1.08;;
20731;SDS011;10527;52.124;5.196;2023-08-01T14:03:06;4.72;;;1.20;;
20731;SDS011;10527;52.124;5.196;2023-08-01T14:05:33;5.47;;;1.55;;
20731;SDS011;10527;52.124;5.196;2023-08-01T14:08:00;4.53;;;1.00;;
20731;SDS011;10527;52.124;5.196;2023-08-01T14:10:28;4.25;;;1.10;;
20731;SDS011;10527;52.124;5.196;2023-08-01T14:12:57;4.03;;;1.33;;
20731;SDS011;10527;52.124;5.196;2023-08-01T14:15:24;6.07;;;1.20;;
20731;SDS011;10527;52.124;5.196;2023-08-01T14:17:51;2.95;;;1.00;;
20731;SDS011;10527;52.124;5.196;2023-08-01T14:20:19;4.93;;;1.48;;
20731;SDS011;10527;52.124;5.196;2023-08-01T14:22:46;5.30;;;1.75;;
20731;SDS011;10527;52.124;5.196;2023-08-01T14:25:13;3.20;;;1.00;;
20731;SDS011;10527;52.124;5.196;2023-08-01T14:27:39;2.42;;;0.95;;
20731;SDS011;10527;52.124;5.196;2023-08-01T14:30:06;4.07;;;1.42;;
20731;SDS011;10527;52.124;5.196;2023-08-01T14:32:36;5.30;;;1.20;;
20731;SDS011;10527;52.124;5.196;2023-08-01T14:35:05;3.20;;;1.15;;
20731;SDS011;10527;52.124;5.196;2023-08-01T14:37:32;3.97;;;0.93;;
20731;SDS011;10527;52.124;5.196;2023-08-01T14:40:00;5.35;;;1.10;;
20731;SDS011;10527;52.124;5.196;2023-08-01T14:42:27;4.68;;;0.98;;
20731;SDS011;10527;52.124;5.196;2023-08-01T14:44:54;2.42;;;1.00;;
20731;SDS011;10527;52.124;5.196;2023-08-01T14:47:23;6.43;;;1.83;;
20731;SDS011;10527;52.124;5.196;2023-08-01T14:49:55;5.50;;;1.30;;
20731;SDS011;10527;52.124;5.196;2023-08-01T14:52:22;3.22;;;0.90;;
20731;SDS011;10527;52.124;5.196;2023-08-01T14:54:56;5.82;;;1.08;;
20731;SDS011;10527;52.124;5.196;2023-08-01T14:57:23;1.60;;;0.60;;
20731;SDS011;10527;52.124;5.196;2023-08-01T14:59:50;1.58;;;0.60;;
20731;SDS011;10527;52.124;5.196;2023-08-01T15:02:19;2.50;;;0.50;;
20731;SDS011;10527;52.124;5.196;2023-08-01T15:04:53;1.88;;;0.60;;
20731;SDS011;10527;52.124;5.196;2023-08-01T15:07:22;3.00;;;0.75;;